createdAt,value
2023-05-07T00:06:11.038Z,156.03
2023-05-07T00:17:10.878Z,155.33
2023-05-07T00:37:33.898Z,155.73
2023-05-07T00:44:26.954Z,155.90
2023-05-07T00:55:54.141Z,155.60
2023-05-07T01:02:48.461Z,155.60
2023-05-07T01:09:30.786Z,155.40
2023-05-07T01:16:25.107Z,155.67
2023-05-07T01:23:08.880Z,154.73
2023-05-07T01:30:02.401Z,155.70
2023-05-07T01:36:58.942Z,155.13
2023-05-07T01:48:18.535Z,155.40
2023-05-07T02:08:16.817Z,155.00
2023-05-07T02:19:29.545Z,155.10
2023-05-07T02:26:38.796Z,154.70
2023-05-07T02:49:04.849Z,154.50
2023-05-07T03:13:30.195Z,154.57
2023-05-07T03:20:18.203Z,153.87
2023-05-07T03:31:34.161Z,154.50
2023-05-07T03:47:19.110Z,154.73
2023-05-07T04:57:36.024Z,154.10
2023-05-07T05:15:01.115Z,153.20
2023-05-07T05:17:29.697Z,154.37
2023-05-07T05:19:58.044Z,153.83
2023-05-07T05:22:26.896Z,154.43
2023-05-07T05:24:54.827Z,154.20
2023-05-07T05:27:23.498Z,154.53
2023-05-07T05:29:52.159Z,154.30
2023-05-07T05:32:21.377Z,154.27
2023-05-07T05:34:50.520Z,154.87
2023-05-07T05:37:18.373Z,154.83
2023-05-07T05:39:46.836Z,154.53
2023-05-07T05:42:15.284Z,154.53
2023-05-07T05:44:43.137Z,154.00
2023-05-07T05:47:11.059Z,154.13
2023-05-07T05:49:40.703Z,154.33
2023-05-07T05:52:11.459Z,154.80
2023-05-07T05:54:39.588Z,154.23
2023-05-07T05:57:07.573Z,154.40
2023-05-07T05:59:35.815Z,155.47
2023-05-07T06:02:04.060Z,155.13
2023-05-07T06:04:32.020Z,155.23
2023-05-07T06:07:01.416Z,154.60
2023-05-07T06:09:29.441Z,154.70
2023-05-07T06:11:59.218Z,154.97
2023-05-07T06:14:28.652Z,155.10
2023-05-07T06:16:57.593Z,155.30
2023-05-07T06:19:27.429Z,154.20
2023-05-07T06:21:57.289Z,153.70
2023-05-07T06:24:27.274Z,154.03
2023-05-07T06:26:55.117Z,154.17
2023-05-07T06:29:23.077Z,154.43
2023-05-07T06:31:50.942Z,154.07
2023-05-07T06:34:18.776Z,153.90
2023-05-07T06:36:47.314Z,153.67
2023-05-07T06:39:36.878Z,153.93
2023-05-07T06:42:05.559Z,153.57
2023-05-07T06:44:34.380Z,154.33
2023-05-07T06:47:13.804Z,153.77
2023-05-07T06:49:43.169Z,154.37
2023-05-07T06:52:10.974Z,154.07
2023-05-07T06:54:40.305Z,154.93
2023-05-07T06:57:09.260Z,154.60
2023-05-07T06:59:37.425Z,154.67
2023-05-07T07:02:05.332Z,154.67
2023-05-07T07:04:33.356Z,154.57
2023-05-07T07:07:06.047Z,154.57
2023-05-07T07:09:33.978Z,154.87
2023-05-07T07:12:04.854Z,154.63
2023-05-07T07:14:32.933Z,154.80
2023-05-07T07:17:00.913Z,154.90
2023-05-07T07:19:29.051Z,154.97
2023-05-07T07:21:57.754Z,155.20
2023-05-07T07:24:25.702Z,154.57
2023-05-07T07:26:58.673Z,154.90
2023-05-07T07:29:29.048Z,154.77
2023-05-07T07:31:57.206Z,154.53
2023-05-07T07:34:25.230Z,155.43
2023-05-07T07:36:53.312Z,155.03
2023-05-07T07:39:21.491Z,155.23
2023-05-07T07:41:52.248Z,155.33
2023-05-07T07:44:21.553Z,155.63
2023-05-07T07:46:55.410Z,155.93
2023-05-07T07:49:25.204Z,155.10
2023-05-07T07:51:53.245Z,155.70
2023-05-07T07:54:21.197Z,155.07
2023-05-07T07:56:49.065Z,155.97
2023-05-07T07:59:19.750Z,155.60
2023-05-07T08:01:52.339Z,156.13
2023-05-07T08:04:23.485Z,155.93
2023-05-07T08:06:52.037Z,155.87
2023-05-07T08:09:20.815Z,155.57
2023-05-07T08:11:49.992Z,156.20
2023-05-07T08:14:18.009Z,155.87
2023-05-07T08:16:48.581Z,155.80
2023-05-07T08:19:16.537Z,156.03
2023-05-07T08:21:48.472Z,156.37
2023-05-07T08:24:16.656Z,155.90
2023-05-07T08:26:44.919Z,156.43
2023-05-07T08:29:13.281Z,156.07
2023-05-07T08:31:41.329Z,155.50
2023-05-07T08:34:10.149Z,156.13
2023-05-07T08:36:42.641Z,155.63
2023-05-07T08:39:12.718Z,155.60
2023-05-07T08:41:41.003Z,156.40
2023-05-07T08:44:14.738Z,155.53
2023-05-07T08:46:46.888Z,156.03
2023-05-07T08:49:19.125Z,156.23
2023-05-07T08:51:47.805Z,155.83
2023-05-07T08:54:20.675Z,156.37
2023-05-07T08:56:48.999Z,156.03
2023-05-07T08:59:17.370Z,156.70
2023-05-07T09:01:46.582Z,156.50
2023-05-07T09:04:15.090Z,156.90
2023-05-07T09:06:43.994Z,156.63
2023-05-07T09:09:19.411Z,157.23
2023-05-07T09:11:48.828Z,156.70
2023-05-07T09:14:23.782Z,156.33
2023-05-07T09:16:54.409Z,156.33
2023-05-07T09:19:25.335Z,156.53
2023-05-07T09:22:00.385Z,156.20
2023-05-07T09:24:29.569Z,157.47
2023-05-07T09:27:00.062Z,157.37
2023-05-07T09:29:29.674Z,156.83
2023-05-07T09:31:57.615Z,157.60
2023-05-07T09:34:25.767Z,157.77
2023-05-07T09:36:55.363Z,158.23
2023-05-07T09:39:23.919Z,157.80
2023-05-07T09:41:53.246Z,157.93
2023-05-07T09:44:27.743Z,158.57
2023-05-07T09:46:57.265Z,159.00
2023-05-07T09:49:35.165Z,158.13
2023-05-07T09:52:09.594Z,158.20
2023-05-07T09:54:41.239Z,159.60
2023-05-07T09:57:11.467Z,159.10
2023-05-07T09:59:45.226Z,158.90
2023-05-07T10:02:17.441Z,158.47
2023-05-07T10:04:51.139Z,158.77
2023-05-07T10:07:24.505Z,158.83
2023-05-07T10:09:56.469Z,157.83
2023-05-07T10:12:39.794Z,158.03
2023-05-07T10:15:15.297Z,158.50
2023-05-07T10:17:47.157Z,158.73
2023-05-07T10:20:15.639Z,158.20
2023-05-07T10:22:48.955Z,159.13
2023-05-07T10:25:24.707Z,159.07
2023-05-07T10:27:54.868Z,158.77
2023-05-07T10:30:37.563Z,158.57
2023-05-07T10:33:10.845Z,158.80
2023-05-07T10:35:45.010Z,158.07
2023-05-07T10:38:13.739Z,158.90
2023-05-07T10:40:43.867Z,158.93
2023-05-07T10:43:11.997Z,159.13
2023-05-07T10:46:07.128Z,158.57
2023-05-07T10:48:35.878Z,158.90
2023-05-07T10:51:23.331Z,158.40
2023-05-07T10:54:22.407Z,158.30
2023-05-07T10:57:38.317Z,158.73
2023-05-07T11:00:44.300Z,158.03
2023-05-07T11:03:19.466Z,158.43
2023-05-07T11:06:12.796Z,158.60
2023-05-07T11:08:58.115Z,158.77
2023-05-07T11:11:53.784Z,157.33
2023-05-07T11:14:47.126Z,158.33
2023-05-07T11:17:19.790Z,158.23
2023-05-07T11:19:55.317Z,158.00
2023-05-07T11:22:41.724Z,158.57
2023-05-07T11:25:20.782Z,158.77
2023-05-07T11:27:54.853Z,158.90
2023-05-07T11:30:24.209Z,159.10
2023-05-07T11:32:52.208Z,158.50
2023-05-07T11:35:24.661Z,158.30
2023-05-07T11:38:01.100Z,158.13
2023-05-07T11:40:29.669Z,158.57
2023-05-07T11:42:57.517Z,159.20
2023-05-07T11:45:27.407Z,158.63
2023-05-07T11:47:55.441Z,158.97
2023-05-07T11:50:23.568Z,158.50
2023-05-07T11:52:53.602Z,159.00
2023-05-07T11:55:22.826Z,159.03
2023-05-07T11:57:50.648Z,158.73
2023-05-07T12:00:18.915Z,159.07
2023-05-07T12:02:48.758Z,159.27
2023-05-07T12:05:16.696Z,159.03
2023-05-07T12:07:44.750Z,158.77
2023-05-07T12:10:13.860Z,159.03
2023-05-07T12:12:42.764Z,158.77
2023-05-07T12:15:12.114Z,158.77
2023-05-07T12:17:40.399Z,158.70
2023-05-07T12:20:11.400Z,158.87
2023-05-07T12:22:39.336Z,158.87
2023-05-07T12:25:08.321Z,159.67
2023-05-07T12:27:39.035Z,159.47
2023-05-07T12:30:08.005Z,159.30
2023-05-07T12:32:38.083Z,159.77
2023-05-07T12:35:10.356Z,159.63
2023-05-07T12:37:38.494Z,159.23
2023-05-07T12:40:08.111Z,159.67
2023-05-07T12:42:38.745Z,159.37
2023-05-07T12:45:11.547Z,159.30
2023-05-07T12:47:39.709Z,159.57
2023-05-07T12:50:09.932Z,158.60
2023-05-07T12:52:38.266Z,158.47
2023-05-07T12:55:10.868Z,158.70
2023-05-07T12:57:42.195Z,159.10
2023-05-07T13:00:11.053Z,159.23
2023-05-07T13:02:41.667Z,159.60
2023-05-07T13:05:11.338Z,158.83
2023-05-07T13:07:39.663Z,159.23
2023-05-07T13:10:08.808Z,159.30
2023-05-07T13:12:36.923Z,159.67
2023-05-07T13:15:05.440Z,159.13
2023-05-07T13:17:33.447Z,158.97
2023-05-07T13:20:01.312Z,158.50
2023-05-07T13:22:30.589Z,158.77
2023-05-07T13:24:58.386Z,159.20
2023-05-07T13:27:26.953Z,159.30
2023-05-07T13:29:54.788Z,159.10
2023-05-07T13:32:22.627Z,159.90
2023-05-07T13:34:50.731Z,159.73
2023-05-07T13:37:18.590Z,159.27
2023-05-07T13:39:47.769Z,160.07
2023-05-07T13:42:15.595Z,159.50
2023-05-07T13:44:44.731Z,159.23
2023-05-07T13:47:12.830Z,159.13
2023-05-07T13:49:40.883Z,159.27
2023-05-07T13:52:08.703Z,160.00
2023-05-07T13:54:36.524Z,159.70
2023-05-07T13:57:06.356Z,159.40
2023-05-07T13:59:34.235Z,159.83
2023-05-07T14:02:02.556Z,159.60
2023-05-07T14:04:30.406Z,159.40
2023-05-07T14:06:58.245Z,159.80
2023-05-07T14:09:26.203Z,159.70
2023-05-07T14:11:54.199Z,159.43
2023-05-07T14:14:23.363Z,159.67
2023-05-07T14:16:51.555Z,160.47
2023-05-07T14:19:19.436Z,159.60
2023-05-07T14:21:47.226Z,159.27
2023-05-07T14:24:24.280Z,159.57
2023-05-07T14:26:58.858Z,160.03
2023-05-07T14:29:28.032Z,159.73
2023-05-07T14:31:55.944Z,159.77
2023-05-07T14:34:23.779Z,159.23
2023-05-07T14:36:52.785Z,159.87
2023-05-07T14:39:20.674Z,159.63
2023-05-07T14:41:48.522Z,159.90
2023-05-07T14:44:16.343Z,159.77
2023-05-07T14:46:45.554Z,159.97
2023-05-07T14:49:17.879Z,159.77
2023-05-07T14:51:46.626Z,160.03
2023-05-07T14:54:14.516Z,160.00
2023-05-07T14:56:42.971Z,159.97
2023-05-07T14:59:11.341Z,159.80
2023-05-07T15:01:41.348Z,159.33
2023-05-07T15:04:10.697Z,159.77
2023-05-07T15:06:38.580Z,160.60
2023-05-07T15:09:06.487Z,159.77
2023-05-07T15:11:34.707Z,159.40
2023-05-07T15:14:05.399Z,159.53
2023-05-07T15:16:33.666Z,160.00
2023-05-07T15:19:01.481Z,159.17
2023-05-07T15:21:31.802Z,159.20
2023-05-07T15:23:59.622Z,159.53
2023-05-07T15:26:27.500Z,159.83
2023-05-07T15:28:57.316Z,159.40
2023-05-07T15:31:26.050Z,159.20
2023-05-07T15:33:54.250Z,158.97
2023-05-07T15:36:22.313Z,159.47
2023-05-07T15:38:51.443Z,159.93
2023-05-07T15:41:19.277Z,158.90
2023-05-07T15:43:50.663Z,159.43
2023-05-07T15:46:20.895Z,158.47
2023-05-07T15:48:48.865Z,159.03
2023-05-07T15:51:17.606Z,159.53
2023-05-07T15:53:45.708Z,158.93
2023-05-07T15:56:14.945Z,159.63
2023-05-07T15:58:42.823Z,159.10
2023-05-07T16:01:10.691Z,159.27
2023-05-07T16:03:40.241Z,159.00
2023-05-07T16:06:08.283Z,158.23
2023-05-07T16:08:36.281Z,158.80
2023-05-07T16:11:04.109Z,158.53
2023-05-07T16:13:33.331Z,159.10
2023-05-07T16:16:01.254Z,159.40
2023-05-07T16:18:29.472Z,159.40
2023-05-07T16:20:57.946Z,158.27
2023-05-07T16:23:25.820Z,158.47
2023-05-07T16:25:53.809Z,158.37
2023-05-07T16:28:22.308Z,158.80
2023-05-07T16:30:53.393Z,158.60
2023-05-07T16:33:21.222Z,157.77
2023-05-07T16:35:53.027Z,158.60
2023-05-07T16:38:21.036Z,157.97
2023-05-07T16:40:48.894Z,158.17
2023-05-07T16:43:16.729Z,158.07
2023-05-07T16:45:44.559Z,158.07
2023-05-07T16:48:13.821Z,158.20
2023-05-07T16:50:44.407Z,158.17
2023-05-07T16:53:13.569Z,158.10
2023-05-07T16:55:41.885Z,157.03
2023-05-07T16:58:11.091Z,157.67
2023-05-07T17:00:50.200Z,158.63
2023-05-07T17:03:25.944Z,157.80
2023-05-07T17:05:54.634Z,158.37
2023-05-07T17:08:22.834Z,158.13
2023-05-07T17:11:00.604Z,158.40
2023-05-07T17:13:28.462Z,158.07
2023-05-07T17:15:56.409Z,159.13
2023-05-07T17:18:25.591Z,158.47
2023-05-07T17:20:53.438Z,158.53
2023-05-07T17:23:22.864Z,157.70
2023-05-07T17:25:50.779Z,158.83
2023-05-07T17:28:18.572Z,157.87
2023-05-07T17:30:48.057Z,157.80
2023-05-07T17:33:21.357Z,158.10
2023-05-07T17:35:53.604Z,158.07
2023-05-07T17:38:21.627Z,158.20
2023-05-07T17:40:49.667Z,158.47
2023-05-07T17:43:18.081Z,157.57
2023-05-07T17:45:46.652Z,157.63
2023-05-07T17:48:14.901Z,157.90
2023-05-07T17:50:42.715Z,157.60
2023-05-07T17:53:11.912Z,158.20
2023-05-07T17:55:43.577Z,157.33
2023-05-07T17:58:11.773Z,157.97
2023-05-07T18:00:39.804Z,157.70
2023-05-07T18:03:09.921Z,157.90
2023-05-07T18:05:39.362Z,157.17
2023-05-07T18:08:08.315Z,157.40
2023-05-07T18:10:37.474Z,158.20
2023-05-07T18:13:05.496Z,157.50
2023-05-07T18:15:33.353Z,157.63
2023-05-07T18:18:01.304Z,157.27
2023-05-07T18:20:29.149Z,157.20
2023-05-07T18:22:57.041Z,157.37
2023-05-07T18:25:25.064Z,157.87
2023-05-07T18:27:54.276Z,157.93
2023-05-07T18:30:23.102Z,158.33
2023-05-07T18:32:50.962Z,157.60
2023-05-07T18:35:18.998Z,158.03
2023-05-07T18:37:46.839Z,157.33
2023-05-07T18:40:15.107Z,157.93
2023-05-07T18:42:43.098Z,157.77
2023-05-07T18:45:13.138Z,157.53
2023-05-07T18:47:41.046Z,158.40
2023-05-07T18:50:09.857Z,157.77
2023-05-07T18:52:37.826Z,157.80
2023-05-07T18:55:07.033Z,157.93
2023-05-07T18:57:34.968Z,157.10
2023-05-07T19:00:02.792Z,157.80
2023-05-07T19:02:31.993Z,157.70
2023-05-07T19:04:59.952Z,157.93
2023-05-07T19:07:27.876Z,158.03
2023-05-07T19:10:04.872Z,158.17
2023-05-07T19:12:33.680Z,157.77
2023-05-07T19:15:01.643Z,158.60
2023-05-07T19:17:30.937Z,158.63
2023-05-07T19:19:58.789Z,158.67
2023-05-07T19:22:26.813Z,159.20
2023-05-07T19:24:54.603Z,157.73
2023-05-07T19:27:22.402Z,157.03
2023-05-07T19:29:50.308Z,158.13
2023-05-07T19:32:20.077Z,158.43
2023-05-07T19:34:49.358Z,159.10
2023-05-07T19:37:17.320Z,157.57
2023-05-07T19:39:46.029Z,157.97
2023-05-07T19:42:14.201Z,157.60
2023-05-07T19:44:42.010Z,157.70
2023-05-07T19:47:09.892Z,157.43
2023-05-07T19:49:38.757Z,157.77
2023-05-07T19:52:08.045Z,158.03
2023-05-07T19:54:37.354Z,158.20
2023-05-07T19:57:05.303Z,157.30
2023-05-07T19:59:33.373Z,158.17
2023-05-07T20:02:01.380Z,157.33
2023-05-07T20:04:32.961Z,158.10
2023-05-07T20:07:01.122Z,157.70
2023-05-07T20:09:30.660Z,157.60
2023-05-07T20:11:58.464Z,158.33
2023-05-07T20:14:27.088Z,158.90
2023-05-07T20:16:55.073Z,158.47
2023-05-07T20:19:22.942Z,158.33
2023-05-07T20:21:50.742Z,157.77
2023-05-07T20:24:19.142Z,157.90
2023-05-07T20:26:48.403Z,157.13
2023-05-07T20:29:16.249Z,159.13
2023-05-07T20:31:44.263Z,159.23
2023-05-07T20:34:12.142Z,159.07
2023-05-07T20:36:40.027Z,158.73
2023-05-07T20:39:08.100Z,158.37
2023-05-07T20:41:35.915Z,157.90
2023-05-07T20:44:05.371Z,158.13
2023-05-07T20:46:33.302Z,157.53
2023-05-07T20:49:01.340Z,157.30
2023-05-07T20:51:29.185Z,156.67
2023-05-07T20:53:57.031Z,157.60
2023-05-07T20:56:25.034Z,157.27
2023-05-07T20:58:52.913Z,157.70
2023-05-07T21:01:22.133Z,157.60
2023-05-07T21:03:53.681Z,157.40
2023-05-07T21:06:21.624Z,157.47
2023-05-07T21:08:49.425Z,156.80
2023-05-07T21:11:17.865Z,157.40
2023-05-07T21:13:45.801Z,156.47
2023-05-07T21:16:13.694Z,156.77
2023-05-07T21:18:42.915Z,155.20
2023-05-07T21:21:11.317Z,155.13
2023-05-07T21:23:39.243Z,155.33
2023-05-07T21:26:07.100Z,155.97
2023-05-07T21:28:34.962Z,155.77
2023-05-07T21:31:02.785Z,155.93
2023-05-07T21:33:30.626Z,156.10
2023-05-07T21:35:59.756Z,155.57
2023-05-07T21:38:27.586Z,156.33
2023-05-07T21:40:55.484Z,155.77
2023-05-07T21:43:23.285Z,155.67
2023-05-07T21:45:51.172Z,155.43
2023-05-07T21:48:21.939Z,156.23
2023-05-07T21:50:49.865Z,156.40
2023-05-07T21:53:18.996Z,156.23
2023-05-07T21:55:46.787Z,155.90
2023-05-07T21:58:14.596Z,155.87
2023-05-07T22:00:42.596Z,156.73
2023-05-07T22:03:10.500Z,156.10
2023-05-07T22:05:38.350Z,155.70
2023-05-07T22:08:06.336Z,155.73
2023-05-07T22:10:35.601Z,156.27
2023-05-07T22:13:03.480Z,156.20
2023-05-07T22:15:31.862Z,155.93
2023-05-07T22:18:01.687Z,155.70
2023-05-07T22:20:29.571Z,156.10
2023-05-07T22:22:57.855Z,155.43
2023-05-07T22:25:26.199Z,156.27
2023-05-07T22:27:55.378Z,156.63
2023-05-07T22:30:23.241Z,155.73
2023-05-07T22:32:51.141Z,155.57
2023-05-07T22:35:19.313Z,155.53
2023-05-07T22:37:47.181Z,154.77
2023-05-07T22:40:15.397Z,155.63
2023-05-07T22:42:44.016Z,154.63
2023-05-07T22:45:13.570Z,155.17
2023-05-07T22:47:41.460Z,155.10
2023-05-07T22:50:09.803Z,155.23
2023-05-07T22:52:37.691Z,156.20
2023-05-07T22:55:06.337Z,155.10
2023-05-07T22:57:34.141Z,155.27
2023-05-07T23:00:02.014Z,155.37
2023-05-07T23:02:32.477Z,154.83
2023-05-07T23:05:01.582Z,155.17
2023-05-07T23:07:29.717Z,155.17
2023-05-07T23:09:57.577Z,155.70
2023-05-07T23:12:25.449Z,154.93
2023-05-07T23:14:53.279Z,155.07
2023-05-07T23:17:21.189Z,155.13
2023-05-07T23:19:50.536Z,154.53
2023-05-07T23:22:18.398Z,153.43
2023-05-07T23:24:46.209Z,153.70
2023-05-07T23:27:14.098Z,154.67
2023-05-07T23:29:41.974Z,154.83
2023-05-07T23:32:09.810Z,154.80
2023-05-07T23:34:37.618Z,155.23
2023-05-07T23:37:06.797Z,156.30
2023-05-07T23:39:34.650Z,156.03
2023-05-07T23:42:02.555Z,156.20
2023-05-07T23:44:30.618Z,156.80
2023-05-07T23:46:58.454Z,155.90
2023-05-07T23:49:26.268Z,155.70
2023-05-07T23:51:54.330Z,155.73
2023-05-07T23:54:23.489Z,155.80
2023-05-07T23:56:51.303Z,155.70
2023-05-07T23:59:19.118Z,155.40
